createdAt,value
2023-02-27T00:02:25.405Z,5.50
2023-02-27T00:04:54.538Z,5.50
2023-02-27T00:07:26.113Z,5.60
2023-02-27T00:09:54.276Z,5.50
2023-02-27T00:12:22.235Z,5.50
2023-02-27T00:14:51.391Z,5.60
2023-02-27T00:17:21.224Z,5.50
2023-02-27T00:19:49.134Z,5.50
2023-02-27T00:22:17.044Z,5.50
2023-02-27T00:24:45.211Z,5.50
2023-02-27T00:27:13.312Z,5.50
2023-02-27T00:29:41.409Z,5.60
2023-02-27T00:32:09.499Z,5.50
2023-02-27T00:34:38.896Z,5.50
2023-02-27T00:37:06.962Z,5.40
2023-02-27T00:39:35.135Z,5.60
2023-02-27T00:42:23.352Z,5.50
2023-02-27T00:44:51.377Z,5.50
2023-02-27T00:47:19.449Z,5.50
2023-02-27T00:49:49.307Z,5.40
2023-02-27T00:52:17.454Z,5.30
2023-02-27T00:54:45.464Z,5.30
2023-02-27T00:57:13.479Z,5.20
2023-02-27T00:59:41.423Z,5.20
2023-02-27T01:02:09.803Z,5.20
2023-02-27T01:04:37.985Z,5.10
2023-02-27T01:07:07.358Z,5.10
2023-02-27T01:09:35.683Z,5.10
2023-02-27T01:12:03.637Z,5.00
2023-02-27T01:14:34.111Z,5.00
2023-02-27T01:17:02.086Z,5.00
2023-02-27T01:19:32.090Z,5.00
2023-02-27T01:22:00.385Z,4.90
2023-02-27T01:24:29.927Z,4.90
2023-02-27T01:26:57.855Z,4.90
2023-02-27T01:29:26.152Z,5.00
2023-02-27T01:31:54.848Z,4.90
2023-02-27T01:34:23.008Z,4.80
2023-02-27T01:36:50.996Z,4.80
2023-02-27T01:39:18.978Z,4.80
2023-02-27T01:41:49.584Z,4.80
2023-02-27T01:44:17.585Z,4.70
2023-02-27T01:46:45.631Z,4.70
2023-02-27T01:49:17.733Z,4.70
2023-02-27T01:51:49.142Z,4.70
2023-02-27T01:54:20.464Z,4.80
2023-02-27T01:56:51.046Z,4.70
2023-02-27T01:59:20.916Z,4.70
2023-02-27T02:01:49.218Z,4.60
2023-02-27T02:04:25.224Z,4.60
2023-02-27T02:06:59.248Z,4.60
2023-02-27T02:09:28.824Z,4.70
2023-02-27T02:11:58.888Z,4.60
2023-02-27T02:14:27.618Z,4.60
2023-02-27T02:17:13.621Z,4.60
2023-02-27T02:20:20.172Z,4.70
2023-02-27T02:23:16.860Z,4.70
2023-02-27T02:26:26.613Z,4.70
2023-02-27T02:29:26.984Z,4.70
2023-02-27T02:32:25.221Z,4.60
2023-02-27T02:35:19.919Z,4.60
2023-02-27T02:38:19.104Z,4.60
2023-02-27T02:40:54.891Z,4.60
2023-02-27T02:43:30.269Z,4.50
2023-02-27T02:46:05.129Z,4.60
2023-02-27T02:48:40.170Z,4.50
2023-02-27T02:51:18.610Z,4.50
2023-02-27T02:53:52.734Z,4.40
2023-02-27T02:56:26.490Z,4.40
2023-02-27T02:58:59.772Z,4.40
2023-02-27T03:01:34.125Z,4.40
2023-02-27T03:04:08.428Z,4.30
2023-02-27T03:06:40.882Z,4.30
2023-02-27T03:09:17.626Z,4.20
2023-02-27T03:11:52.997Z,4.20
2023-02-27T03:14:30.118Z,4.20
2023-02-27T03:17:03.756Z,4.10
2023-02-27T03:19:38.596Z,4.10
2023-02-27T03:22:13.167Z,4.10
2023-02-27T03:24:45.713Z,4.00
2023-02-27T03:27:17.504Z,4.00
2023-02-27T03:29:50.633Z,3.90
2023-02-27T03:32:22.598Z,3.90
2023-02-27T03:34:51.099Z,3.90
2023-02-27T03:37:28.245Z,3.80
2023-02-27T03:40:02.590Z,3.80
2023-02-27T03:42:37.436Z,3.80
2023-02-27T03:45:14.525Z,3.70
2023-02-27T03:47:42.936Z,3.70
2023-02-27T03:50:12.209Z,3.70
2023-02-27T03:52:40.702Z,3.60
2023-02-27T03:55:13.926Z,3.60
2023-02-27T03:57:44.790Z,3.60
2023-02-27T04:00:16.457Z,3.60
2023-02-27T04:02:46.789Z,3.60
2023-02-27T04:05:14.836Z,3.50
2023-02-27T04:07:52.716Z,3.50
2023-02-27T04:10:42.013Z,3.50
2023-02-27T04:13:36.565Z,3.50
2023-02-27T04:16:35.565Z,3.50
2023-02-27T04:19:17.084Z,3.40
2023-02-27T04:21:53.360Z,3.40
2023-02-27T04:24:33.956Z,3.40
2023-02-27T04:27:07.626Z,3.40
2023-02-27T04:29:46.313Z,3.30
2023-02-27T04:32:21.693Z,3.30
2023-02-27T04:34:54.545Z,3.40
2023-02-27T04:37:29.469Z,3.30
2023-02-27T04:40:01.545Z,3.20
2023-02-27T04:42:33.096Z,3.20
2023-02-27T04:45:06.982Z,3.20
2023-02-27T04:47:41.189Z,3.20
2023-02-27T04:50:13.037Z,3.20
2023-02-27T04:52:45.711Z,3.20
2023-02-27T04:55:18.952Z,3.20
2023-02-27T04:57:51.981Z,3.10
2023-02-27T05:00:26.833Z,3.10
2023-02-27T05:03:03.975Z,3.10
2023-02-27T05:05:38.652Z,3.10
2023-02-27T05:08:11.041Z,3.10
2023-02-27T05:10:46.392Z,3.10
2023-02-27T05:13:19.981Z,3.00
2023-02-27T05:15:53.909Z,3.00
2023-02-27T05:18:24.108Z,3.10
2023-02-27T05:21:00.307Z,3.00
2023-02-27T05:23:37.667Z,3.00
2023-02-27T05:26:15.932Z,3.00
2023-02-27T05:28:52.628Z,2.90
2023-02-27T05:31:28.182Z,2.90
2023-02-27T05:33:59.820Z,2.90
2023-02-27T05:36:35.164Z,2.90
2023-02-27T05:39:07.206Z,2.80
2023-02-27T05:41:40.354Z,2.90
2023-02-27T05:44:14.024Z,2.80
2023-02-27T05:46:46.579Z,2.80
2023-02-27T05:49:19.449Z,2.80
2023-02-27T05:51:53.127Z,2.80
2023-02-27T05:54:32.851Z,2.80
2023-02-27T05:57:02.640Z,2.80
2023-02-27T05:59:35.283Z,2.80
2023-02-27T06:02:04.714Z,2.80
2023-02-27T06:04:32.932Z,2.80
2023-02-27T06:07:01.650Z,2.70
2023-02-27T06:09:29.619Z,2.80
2023-02-27T06:11:58.444Z,2.70
2023-02-27T06:14:26.465Z,2.70
2023-02-27T06:16:54.533Z,2.70
2023-02-27T06:19:24.318Z,2.70
2023-02-27T06:21:52.629Z,2.70
2023-02-27T06:24:22.230Z,2.70
2023-02-27T06:26:50.272Z,2.70
2023-02-27T06:29:20.802Z,2.80
2023-02-27T06:31:51.290Z,2.70
2023-02-27T06:34:20.585Z,2.70
2023-02-27T06:36:49.988Z,2.70
2023-02-27T06:39:17.961Z,2.70
2023-02-27T06:41:45.933Z,2.70
2023-02-27T06:44:14.254Z,2.60
2023-02-27T06:46:42.260Z,2.70
2023-02-27T06:49:10.534Z,2.70
2023-02-27T06:51:39.283Z,2.70
2023-02-27T06:54:08.881Z,2.70
2023-02-27T06:56:37.011Z,2.70
2023-02-27T06:59:05.111Z,2.70
2023-02-27T07:01:33.259Z,2.70
2023-02-27T07:04:01.489Z,2.60
2023-02-27T07:07:35.661Z,2.70
2023-02-27T07:09:19.080Z,2.70
2023-02-27T07:11:47.077Z,2.70
2023-02-27T07:14:16.709Z,2.70
2023-02-27T07:16:47.071Z,2.70
2023-02-27T07:19:15.332Z,2.70
2023-02-27T07:21:43.307Z,2.70
2023-02-27T07:24:11.995Z,2.70
2023-02-27T07:26:41.755Z,2.80
2023-02-27T07:29:10.106Z,2.80
2023-02-27T07:31:38.715Z,2.80
2023-02-27T07:34:07.003Z,2.80
2023-02-27T07:36:35.162Z,2.80
2023-02-27T07:39:03.719Z,2.80
2023-02-27T07:41:32.061Z,2.80
2023-02-27T07:44:01.483Z,2.90
2023-02-27T07:46:30.039Z,3.00
2023-02-27T07:48:58.202Z,3.00
2023-02-27T07:51:26.350Z,3.00
2023-02-27T07:53:54.568Z,3.10
2023-02-27T07:56:22.700Z,3.10
2023-02-27T07:58:51.009Z,3.20
2023-02-27T08:01:28.723Z,3.30
2023-02-27T08:03:59.341Z,3.40
2023-02-27T08:06:28.321Z,3.40
2023-02-27T08:08:56.588Z,3.50
2023-02-27T08:11:25.690Z,3.50
2023-02-27T08:14:02.035Z,3.50
2023-02-27T08:16:33.032Z,3.60
2023-02-27T08:19:01.865Z,3.70
2023-02-27T08:21:30.747Z,3.70
2023-02-27T08:23:59.028Z,3.80
2023-02-27T08:26:27.558Z,3.80
2023-02-27T08:28:55.838Z,4.00
2023-02-27T08:31:24.055Z,3.90
2023-02-27T08:34:01.133Z,4.10
2023-02-27T08:36:35.839Z,4.00
2023-02-27T08:39:04.625Z,4.10
2023-02-27T08:41:33.069Z,4.20
2023-02-27T08:44:01.171Z,4.20
2023-02-27T08:46:29.812Z,4.30
2023-02-27T08:48:59.617Z,4.40
2023-02-27T08:51:28.042Z,4.40
2023-02-27T08:53:58.875Z,4.40
2023-02-27T08:56:27.500Z,4.50
2023-02-27T08:58:56.816Z,4.60
2023-02-27T09:01:27.396Z,4.70
2023-02-27T09:03:55.607Z,4.80
2023-02-27T09:06:26.523Z,4.70
2023-02-27T09:08:54.684Z,4.90
2023-02-27T09:11:22.988Z,4.90
2023-02-27T09:13:51.492Z,4.90
2023-02-27T09:16:20.295Z,4.90
2023-02-27T09:18:48.813Z,5.00
2023-02-27T09:21:17.203Z,5.00
2023-02-27T09:23:46.845Z,5.10
2023-02-27T09:26:16.465Z,5.10
2023-02-27T09:28:44.491Z,5.10
2023-02-27T09:31:13.380Z,5.20
2023-02-27T09:33:41.605Z,5.30
2023-02-27T09:36:09.995Z,5.30
2023-02-27T09:38:41.226Z,5.30
2023-02-27T09:41:33.322Z,5.40
2023-02-27T09:44:02.053Z,5.40
2023-02-27T09:46:30.591Z,5.40
2023-02-27T09:49:00.822Z,5.40
2023-02-27T09:51:29.950Z,5.50
2023-02-27T09:54:00.759Z,5.60
2023-02-27T09:56:33.121Z,5.60
2023-02-27T09:59:14.693Z,5.60
2023-02-27T10:01:48.767Z,5.70
2023-02-27T10:04:32.736Z,5.80
2023-02-27T10:07:10.600Z,5.80
2023-02-27T10:09:57.954Z,5.80
2023-02-27T10:12:59.785Z,5.70
2023-02-27T10:15:30.719Z,5.80
2023-02-27T10:18:13.557Z,5.80
2023-02-27T10:20:55.646Z,5.90
2023-02-27T10:23:32.995Z,5.90
2023-02-27T10:26:26.427Z,5.90
2023-02-27T10:28:56.168Z,5.90
2023-02-27T10:31:33.883Z,6.00
2023-02-27T10:34:03.104Z,6.10
2023-02-27T10:36:34.511Z,6.20
2023-02-27T10:39:07.843Z,6.30
2023-02-27T10:41:37.536Z,6.30
2023-02-27T10:44:07.437Z,6.40
2023-02-27T10:46:39.086Z,6.40
2023-02-27T10:49:18.863Z,6.50
2023-02-27T10:51:48.325Z,6.50
2023-02-27T10:54:21.680Z,6.60
2023-02-27T10:56:53.225Z,6.60
2023-02-27T10:59:25.343Z,6.60
2023-02-27T11:01:55.885Z,6.60
2023-02-27T11:04:30.035Z,6.70
2023-02-27T11:06:59.244Z,6.70
2023-02-27T11:09:29.744Z,6.80
2023-02-27T11:12:13.135Z,6.60
2023-02-27T11:14:52.258Z,6.70
2023-02-27T11:17:28.610Z,6.80
2023-02-27T11:19:59.646Z,6.90
2023-02-27T11:22:29.862Z,7.00
2023-02-27T11:25:20.608Z,7.10
2023-02-27T11:27:49.191Z,7.20
2023-02-27T11:30:28.119Z,7.30
2023-02-27T11:32:58.999Z,7.40
2023-02-27T11:35:31.116Z,7.50
2023-02-27T11:38:03.103Z,7.50
2023-02-27T11:40:33.742Z,7.60
2023-02-27T11:43:06.464Z,7.60
2023-02-27T11:46:04.275Z,7.70
2023-02-27T11:48:30.283Z,7.80
2023-02-27T11:51:25.331Z,7.90
2023-02-27T11:54:11.629Z,7.90
2023-02-27T11:56:44.317Z,7.90
2023-02-27T11:59:24.162Z,7.90
2023-02-27T12:01:58.614Z,7.80
2023-02-27T12:04:32.722Z,7.70
2023-02-27T12:07:07.020Z,7.60
2023-02-27T12:09:44.468Z,7.50
2023-02-27T12:12:22.256Z,7.40
2023-02-27T12:14:58.320Z,7.40
2023-02-27T12:17:33.478Z,7.20
2023-02-27T12:20:13.616Z,7.10
2023-02-27T12:22:45.933Z,7.10
2023-02-27T12:25:22.890Z,7.10
2023-02-27T12:27:58.009Z,7.10
2023-02-27T12:30:30.322Z,7.10
2023-02-27T12:33:04.678Z,7.20
2023-02-27T12:35:33.887Z,7.20
2023-02-27T12:38:02.902Z,7.30
2023-02-27T12:40:38.327Z,7.30
2023-02-27T12:43:24.033Z,7.30
2023-02-27T12:46:05.229Z,7.40
2023-02-27T12:48:54.569Z,7.40
2023-02-27T12:51:34.642Z,7.60
2023-02-27T12:54:15.739Z,7.70
2023-02-27T12:56:53.609Z,7.70
2023-02-27T12:59:39.043Z,7.70
2023-02-27T13:02:29.694Z,7.70
2023-02-27T13:05:09.687Z,7.70
2023-02-27T13:07:47.370Z,7.70
2023-02-27T13:10:21.732Z,7.60
2023-02-27T13:12:56.680Z,7.50
2023-02-27T13:15:29.491Z,7.60
2023-02-27T13:18:02.938Z,7.40
2023-02-27T13:20:40.152Z,7.50
2023-02-27T13:23:18.465Z,7.50
2023-02-27T13:25:51.708Z,7.50
2023-02-27T13:28:24.889Z,7.40
2023-02-27T13:31:04.845Z,7.30
2023-02-27T13:33:39.337Z,7.40
2023-02-27T13:36:17.243Z,7.40
2023-02-27T13:38:47.051Z,7.50
2023-02-27T13:41:45.155Z,7.60
2023-02-27T13:44:41.782Z,7.60
2023-02-27T13:47:45.918Z,7.60
2023-02-27T13:50:52.016Z,7.60
2023-02-27T13:53:24.539Z,7.60
2023-02-27T13:56:01.158Z,7.60
2023-02-27T13:58:29.591Z,7.60
2023-02-27T14:01:01.432Z,7.70
2023-02-27T14:03:32.563Z,7.80
2023-02-27T14:06:06.930Z,7.90
2023-02-27T14:08:48.170Z,8.10
2023-02-27T14:11:28.568Z,8.10
2023-02-27T14:14:29.341Z,8.20
2023-02-27T14:16:59.330Z,8.30
2023-02-27T14:19:59.404Z,8.20
2023-02-27T14:22:37.829Z,8.20
2023-02-27T14:25:27.546Z,8.30
2023-02-27T14:27:58.171Z,8.20
2023-02-27T14:30:40.880Z,8.20
2023-02-27T14:33:24.108Z,8.30
2023-02-27T14:36:02.412Z,8.20
2023-02-27T14:38:31.008Z,8.20
2023-02-27T14:41:16.198Z,8.30
2023-02-27T14:43:48.490Z,8.30
2023-02-27T14:46:25.232Z,8.40
2023-02-27T14:48:57.815Z,8.50
2023-02-27T14:51:27.371Z,8.50
2023-02-27T14:54:05.300Z,8.70
2023-02-27T14:56:36.147Z,8.90
2023-02-27T14:59:17.793Z,9.00
2023-02-27T15:01:46.284Z,9.10
2023-02-27T15:04:19.146Z,9.10
2023-02-27T15:06:50.117Z,9.00
2023-02-27T15:09:24.323Z,9.00
2023-02-27T15:12:03.502Z,8.90
2023-02-27T15:14:36.111Z,8.80
2023-02-27T15:17:05.393Z,8.80
2023-02-27T15:19:33.582Z,8.80
2023-02-27T15:22:05.565Z,8.70
2023-02-27T15:24:49.320Z,8.70
2023-02-27T15:27:23.986Z,8.70
2023-02-27T15:29:54.986Z,8.70
2023-02-27T15:32:29.288Z,8.60
2023-02-27T15:34:58.827Z,8.50
2023-02-27T15:37:28.907Z,8.40
2023-02-27T15:39:58.701Z,8.30
2023-02-27T15:42:36.052Z,8.30
2023-02-27T15:45:06.776Z,8.20
2023-02-27T15:47:36.665Z,8.30
2023-02-27T15:50:11.500Z,8.30
2023-02-27T15:52:46.565Z,8.30
2023-02-27T15:55:17.256Z,8.30
2023-02-27T15:58:00.735Z,8.30
2023-02-27T16:00:32.910Z,8.20
2023-02-27T16:03:02.410Z,8.20
2023-02-27T16:05:38.726Z,8.10
2023-02-27T16:08:07.825Z,8.10
2023-02-27T16:10:41.403Z,8.10
2023-02-27T16:13:31.810Z,8.10
2023-02-27T16:16:01.794Z,8.00
2023-02-27T16:18:35.135Z,8.00
2023-02-27T16:21:14.918Z,8.00
2023-02-27T16:23:44.100Z,7.90
2023-02-27T16:26:36.761Z,7.90
2023-02-27T16:29:17.273Z,8.00
2023-02-27T16:31:49.309Z,7.90
2023-02-27T16:34:44.213Z,7.90
2023-02-27T16:37:22.717Z,7.90
2023-02-27T16:39:52.798Z,7.90
2023-02-27T16:42:22.765Z,7.90
2023-02-27T16:44:52.863Z,7.90
2023-02-27T16:47:23.550Z,7.80
2023-02-27T16:49:51.930Z,7.90
2023-02-27T16:52:25.224Z,7.70
2023-02-27T16:54:53.353Z,7.60
2023-02-27T16:57:25.133Z,7.60
2023-02-27T16:59:56.311Z,7.50
2023-02-27T17:02:25.806Z,7.50
2023-02-27T17:04:54.335Z,7.40
2023-02-27T17:07:23.406Z,7.40
2023-02-27T17:09:52.220Z,7.30
2023-02-27T17:12:20.806Z,7.30
2023-02-27T17:14:51.656Z,7.30
2023-02-27T17:17:21.443Z,7.20
2023-02-27T17:19:49.867Z,7.10
2023-02-27T17:22:20.138Z,7.20
2023-02-27T17:24:48.332Z,7.10
2023-02-27T17:27:16.940Z,7.00
2023-02-27T17:29:45.144Z,6.90
2023-02-27T17:32:13.409Z,6.90
2023-02-27T17:34:43.556Z,6.90
2023-02-27T17:37:12.154Z,6.90
2023-02-27T17:39:41.229Z,6.90
2023-02-27T17:42:10.274Z,6.90
2023-02-27T17:44:38.721Z,6.90
2023-02-27T17:47:07.038Z,6.90
2023-02-27T17:49:35.558Z,6.80
2023-02-27T17:52:07.558Z,6.80
2023-02-27T17:54:36.652Z,6.80
2023-02-27T17:57:06.729Z,6.70
2023-02-27T17:59:34.774Z,6.70
2023-02-27T18:02:02.841Z,6.60
2023-02-27T18:04:30.870Z,6.60
2023-02-27T18:06:58.963Z,6.60
2023-02-27T18:09:28.377Z,6.60
2023-02-27T18:11:57.137Z,6.60
2023-02-27T18:14:25.791Z,6.60
2023-02-27T18:16:54.067Z,6.60
2023-02-27T18:19:24.414Z,6.50
2023-02-27T18:21:52.515Z,6.40
2023-02-27T18:24:20.820Z,6.40
2023-02-27T18:26:50.172Z,6.40
2023-02-27T18:29:18.206Z,6.40
2023-02-27T18:31:50.320Z,6.40
2023-02-27T18:34:18.414Z,6.30
2023-02-27T18:36:47.712Z,6.30
2023-02-27T18:39:16.335Z,6.30
2023-02-27T18:41:44.625Z,6.30
2023-02-27T18:44:14.056Z,6.30
2023-02-27T18:46:42.160Z,6.30
2023-02-27T18:49:10.573Z,6.20
2023-02-27T18:51:39.066Z,6.20
2023-02-27T18:54:07.386Z,6.20
2023-02-27T18:56:35.698Z,6.20
2023-02-27T18:59:05.417Z,6.20
2023-02-27T19:01:36.704Z,6.20
2023-02-27T19:04:06.170Z,6.10
2023-02-27T19:06:36.328Z,6.10
2023-02-27T19:09:05.838Z,6.10
2023-02-27T19:11:34.639Z,6.10
2023-02-27T19:14:04.027Z,6.10
2023-02-27T19:16:34.016Z,6.00
2023-02-27T19:19:04.814Z,6.00
2023-02-27T19:21:33.789Z,6.00
2023-02-27T19:24:02.810Z,6.00
2023-02-27T19:26:33.559Z,5.90
2023-02-27T19:29:01.726Z,5.90
2023-02-27T19:31:29.957Z,5.90
2023-02-27T19:34:01.122Z,5.90
2023-02-27T19:36:34.776Z,5.90
2023-02-27T19:39:03.768Z,5.80
2023-02-27T19:41:38.634Z,5.90
2023-02-27T19:44:08.007Z,5.80
2023-02-27T19:46:40.233Z,5.80
2023-02-27T19:49:13.306Z,5.80
2023-02-27T19:51:41.969Z,5.80
2023-02-27T19:54:15.396Z,5.70
2023-02-27T19:56:44.912Z,5.70
2023-02-27T19:59:33.005Z,5.70
2023-02-27T20:02:01.584Z,5.70
2023-02-27T20:04:38.561Z,5.60
2023-02-27T20:07:08.320Z,5.60
2023-02-27T20:09:41.356Z,5.60
2023-02-27T20:12:10.105Z,5.60
2023-02-27T20:14:38.127Z,5.50
2023-02-27T20:17:08.685Z,5.50
2023-02-27T20:19:38.134Z,5.50
2023-02-27T20:22:07.371Z,5.50
2023-02-27T20:24:35.655Z,5.50
2023-02-27T20:27:03.748Z,5.50
2023-02-27T20:29:32.194Z,5.50
2023-02-27T20:32:05.134Z,5.50
2023-02-27T20:34:55.892Z,5.50
2023-02-27T20:37:25.940Z,5.50
2023-02-27T20:39:54.061Z,5.40
2023-02-27T20:42:25.322Z,5.40
2023-02-27T20:44:56.281Z,5.30
2023-02-27T20:47:29.814Z,5.30
2023-02-27T20:49:58.365Z,5.40
2023-02-27T20:52:29.606Z,5.30
2023-02-27T20:54:57.887Z,5.20
2023-02-27T20:57:27.947Z,5.30
2023-02-27T20:59:55.995Z,5.30
2023-02-27T21:02:25.087Z,5.30
2023-02-27T21:04:54.300Z,5.20
2023-02-27T21:07:23.281Z,5.20
2023-02-27T21:09:53.246Z,5.20
2023-02-27T21:12:22.841Z,5.20
2023-02-27T21:15:11.816Z,5.20
2023-02-27T21:17:40.240Z,5.20
2023-02-27T21:20:11.180Z,5.20
2023-02-27T21:22:50.366Z,5.20
2023-02-27T21:25:22.006Z,5.30
2023-02-27T21:27:50.580Z,5.20
2023-02-27T21:30:23.311Z,5.20
2023-02-27T21:32:57.160Z,5.20
2023-02-27T21:35:26.660Z,5.10
2023-02-27T21:38:01.927Z,5.10
2023-02-27T21:40:37.473Z,5.10
2023-02-27T21:43:27.531Z,5.10
2023-02-27T21:45:58.025Z,5.10
2023-02-27T21:49:02.045Z,5.10
2023-02-27T21:51:40.911Z,5.00
2023-02-27T21:54:23.744Z,5.00
2023-02-27T21:57:05.041Z,5.00
2023-02-27T21:59:35.697Z,5.00
2023-02-27T22:02:04.397Z,5.00
2023-02-27T22:04:33.047Z,5.00
2023-02-27T22:07:04.354Z,4.90
2023-02-27T22:09:34.249Z,4.90
2023-02-27T22:12:28.114Z,4.90
2023-02-27T22:14:57.880Z,4.90
2023-02-27T22:17:27.140Z,4.90
2023-02-27T22:20:18.415Z,4.90
2023-02-27T22:23:09.627Z,4.90
2023-02-27T22:25:39.774Z,4.90
2023-02-27T22:28:12.485Z,4.80
2023-02-27T22:30:40.765Z,4.90
2023-02-27T22:33:10.673Z,4.80
2023-02-27T22:35:40.860Z,4.80
2023-02-27T22:38:09.198Z,4.80
2023-02-27T22:40:40.234Z,4.80
2023-02-27T22:43:14.600Z,4.80
2023-02-27T22:45:49.548Z,4.70
2023-02-27T22:48:23.806Z,4.80
2023-02-27T22:51:16.384Z,4.70
2023-02-27T22:53:46.833Z,4.70
2023-02-27T22:56:36.921Z,4.70
2023-02-27T22:59:10.337Z,4.80
2023-02-27T23:01:41.734Z,4.70
2023-02-27T23:04:33.546Z,4.70
2023-02-27T23:07:01.756Z,4.70
2023-02-27T23:09:31.011Z,4.70
2023-02-27T23:12:00.868Z,4.60
2023-02-27T23:14:31.441Z,4.60
2023-02-27T23:17:01.145Z,4.60
2023-02-27T23:19:30.915Z,4.60
2023-02-27T23:21:59.618Z,4.60
2023-02-27T23:24:30.065Z,4.60
2023-02-27T23:27:39.086Z,4.50
2023-02-27T23:30:50.483Z,4.50
2023-02-27T23:33:19.810Z,4.60
2023-02-27T23:35:49.430Z,4.50
2023-02-27T23:38:39.869Z,4.40
2023-02-27T23:42:08.383Z,4.50
2023-02-27T23:45:33.100Z,4.50
2023-02-27T23:49:15.665Z,4.50
2023-02-27T23:51:45.402Z,4.40
2023-02-27T23:54:36.663Z,4.50
2023-02-27T23:57:13.199Z,4.50
